sensor_id;sensor_type;location;lat;lon;timestamp;temperature;humidity
4425;DHT22;2225;53.568;13.266;2022-11-15T00:00:41;10.20;96.40
4425;DHT22;2225;53.568;13.266;2022-11-15T00:03:27;10.20;96.30
4425;DHT22;2225;53.568;13.266;2022-11-15T00:06:13;10.10;96.30
4425;DHT22;2225;53.568;13.266;2022-11-15T00:08:59;10.10;96.30
4425;DHT22;2225;53.568;13.266;2022-11-15T00:11:45;10.10;96.20
4425;DHT22;2225;53.568;13.266;2022-11-15T00:14:30;10.10;96.20
4425;DHT22;2225;53.568;13.266;2022-11-15T00:17:16;10.00;96.30
4425;DHT22;2225;53.568;13.266;2022-11-15T00:20:01;10.00;96.20
4425;DHT22;2225;53.568;13.266;2022-11-15T00:22:46;10.00;96.30
4425;DHT22;2225;53.568;13.266;2022-11-15T00:25:32;9.90;96.20
4425;DHT22;2225;53.568;13.266;2022-11-15T00:28:18;9.90;96.20
4425;DHT22;2225;53.568;13.266;2022-11-15T00:31:05;9.90;96.20
4425;DHT22;2225;53.568;13.266;2022-11-15T00:33:51;9.90;96.50
4425;DHT22;2225;53.568;13.266;2022-11-15T00:36:37;9.80;96.40
4425;DHT22;2225;53.568;13.266;2022-11-15T00:39:22;9.80;96.00
4425;DHT22;2225;53.568;13.266;2022-11-15T00:42:07;9.80;96.00
4425;DHT22;2225;53.568;13.266;2022-11-15T00:44:52;9.80;95.90
4425;DHT22;2225;53.568;13.266;2022-11-15T00:47:38;9.70;95.80
4425;DHT22;2225;53.568;13.266;2022-11-15T00:50:23;9.70;95.80
4425;DHT22;2225;53.568;13.266;2022-11-15T00:53:08;9.70;95.80
4425;DHT22;2225;53.568;13.266;2022-11-15T00:55:55;9.70;95.80
4425;DHT22;2225;53.568;13.266;2022-11-15T00:58:40;9.70;95.80
4425;DHT22;2225;53.568;13.266;2022-11-15T01:01:25;9.60;95.70
4425;DHT22;2225;53.568;13.266;2022-11-15T01:04:11;9.60;95.80
4425;DHT22;2225;53.568;13.266;2022-11-15T01:06:56;9.50;95.90
4425;DHT22;2225;53.568;13.266;2022-11-15T01:09:42;9.50;95.90
4425;DHT22;2225;53.568;13.266;2022-11-15T01:12:27;9.50;95.90
4425;DHT22;2225;53.568;13.266;2022-11-15T01:15:13;9.40;95.80
4425;DHT22;2225;53.568;13.266;2022-11-15T01:17:58;9.40;95.90
4425;DHT22;2225;53.568;13.266;2022-11-15T01:20:43;9.30;95.80
4425;DHT22;2225;53.568;13.266;2022-11-15T01:23:29;9.40;95.90
4425;DHT22;2225;53.568;13.266;2022-11-15T01:26:16;9.30;95.90
4425;DHT22;2225;53.568;13.266;2022-11-15T01:29:01;9.30;96.00
4425;DHT22;2225;53.568;13.266;2022-11-15T01:31:47;9.30;96.00
4425;DHT22;2225;53.568;13.266;2022-11-15T01:34:32;9.20;96.00
4425;DHT22;2225;53.568;13.266;2022-11-15T01:37:18;9.30;96.00
4425;DHT22;2225;53.568;13.266;2022-11-15T01:40:03;9.30;96.00
4425;DHT22;2225;53.568;13.266;2022-11-15T01:42:49;9.20;96.00
4425;DHT22;2225;53.568;13.266;2022-11-15T01:45:34;9.20;96.00
4425;DHT22;2225;53.568;13.266;2022-11-15T01:48:20;9.20;96.00
4425;DHT22;2225;53.568;13.266;2022-11-15T01:51:10;9.20;96.10
4425;DHT22;2225;53.568;13.266;2022-11-15T01:54:00;9.20;96.10
4425;DHT22;2225;53.568;13.266;2022-11-15T01:56:55;9.20;96.10
4425;DHT22;2225;53.568;13.266;2022-11-15T01:59:45;9.10;96.00
4425;DHT22;2225;53.568;13.266;2022-11-15T02:02:31;9.10;96.00
4425;DHT22;2225;53.568;13.266;2022-11-15T02:05:17;9.10;96.00
4425;DHT22;2225;53.568;13.266;2022-11-15T02:08:03;9.10;96.00
4425;DHT22;2225;53.568;13.266;2022-11-15T02:10:48;9.10;96.00
4425;DHT22;2225;53.568;13.266;2022-11-15T02:13:34;9.10;96.10
4425;DHT22;2225;53.568;13.266;2022-11-15T02:16:43;9.00;96.00
4425;DHT22;2225;53.568;13.266;2022-11-15T02:23:56;9.00;96.20
4425;DHT22;2225;53.568;13.266;2022-11-15T02:31:00;9.00;96.20
4425;DHT22;2225;53.568;13.266;2022-11-15T02:33:56;8.90;96.10
4425;DHT22;2225;53.568;13.266;2022-11-15T02:37:16;8.90;96.10
4425;DHT22;2225;53.568;13.266;2022-11-15T02:40:27;8.90;96.30
4425;DHT22;2225;53.568;13.266;2022-11-15T02:43:28;8.90;96.30
4425;DHT22;2225;53.568;13.266;2022-11-15T02:46:43;8.80;96.20
4425;DHT22;2225;53.568;13.266;2022-11-15T02:49:59;8.80;96.20
4425;DHT22;2225;53.568;13.266;2022-11-15T02:52:48;8.80;96.20
4425;DHT22;2225;53.568;13.266;2022-11-15T02:55:43;8.70;96.20
4425;DHT22;2225;53.568;13.266;2022-11-15T02:58:41;8.70;96.50
4425;DHT22;2225;53.568;13.266;2022-11-15T03:01:38;8.70;96.20
4425;DHT22;2225;53.568;13.266;2022-11-15T03:05:09;8.70;96.30
4425;DHT22;2225;53.568;13.266;2022-11-15T03:08:29;8.70;96.30
4425;DHT22;2225;53.568;13.266;2022-11-15T03:11:50;8.70;96.30
4425;DHT22;2225;53.568;13.266;2022-11-15T03:14:52;8.70;96.30
4425;DHT22;2225;53.568;13.266;2022-11-15T03:17:49;8.60;96.30
4425;DHT22;2225;53.568;13.266;2022-11-15T03:20:37;8.60;96.30
4425;DHT22;2225;53.568;13.266;2022-11-15T03:23:24;8.60;96.40
4425;DHT22;2225;53.568;13.266;2022-11-15T03:26:12;8.60;96.40
4425;DHT22;2225;53.568;13.266;2022-11-15T03:29:13;8.50;96.40
4425;DHT22;2225;53.568;13.266;2022-11-15T03:32:11;8.50;96.50
4425;DHT22;2225;53.568;13.266;2022-11-15T03:35:02;8.50;96.50
4425;DHT22;2225;53.568;13.266;2022-11-15T03:41:17;8.50;96.40
4425;DHT22;2225;53.568;13.266;2022-11-15T03:44:31;8.50;96.40
4425;DHT22;2225;53.568;13.266;2022-11-15T03:47:35;8.50;96.40
4425;DHT22;2225;53.568;13.266;2022-11-15T03:50:25;8.50;96.30
4425;DHT22;2225;53.568;13.266;2022-11-15T03:53:13;8.50;96.30
4425;DHT22;2225;53.568;13.266;2022-11-15T03:55:58;8.40;96.40
4425;DHT22;2225;53.568;13.266;2022-11-15T03:58:44;8.40;96.40
4425;DHT22;2225;53.568;13.266;2022-11-15T04:01:29;8.50;96.40
4425;DHT22;2225;53.568;13.266;2022-11-15T04:04:14;8.40;96.40
4425;DHT22;2225;53.568;13.266;2022-11-15T04:07:00;8.40;96.40
4425;DHT22;2225;53.568;13.266;2022-11-15T04:09:45;8.40;96.40
4425;DHT22;2225;53.568;13.266;2022-11-15T04:12:50;8.40;96.40
4425;DHT22;2225;53.568;13.266;2022-11-15T04:15:36;8.40;96.30
4425;DHT22;2225;53.568;13.266;2022-11-15T04:18:21;8.30;96.40
4425;DHT22;2225;53.568;13.266;2022-11-15T04:21:08;8.30;96.30
4425;DHT22;2225;53.568;13.266;2022-11-15T04:24:12;8.30;96.30
4425;DHT22;2225;53.568;13.266;2022-11-15T04:26:58;8.30;96.20
4425;DHT22;2225;53.568;13.266;2022-11-15T04:29:43;8.20;96.20
4425;DHT22;2225;53.568;13.266;2022-11-15T04:32:28;8.20;96.20
4425;DHT22;2225;53.568;13.266;2022-11-15T04:35:13;8.20;96.20
4425;DHT22;2225;53.568;13.266;2022-11-15T04:37:59;8.20;96.10
4425;DHT22;2225;53.568;13.266;2022-11-15T04:40:46;8.20;96.20
4425;DHT22;2225;53.568;13.266;2022-11-15T04:43:32;8.20;96.20
4425;DHT22;2225;53.568;13.266;2022-11-15T04:46:17;8.10;96.30
4425;DHT22;2225;53.568;13.266;2022-11-15T04:49:03;8.10;96.30
4425;DHT22;2225;53.568;13.266;2022-11-15T04:51:48;8.10;96.40
4425;DHT22;2225;53.568;13.266;2022-11-15T04:54:33;8.10;96.40
4425;DHT22;2225;53.568;13.266;2022-11-15T04:57:19;8.10;96.40
4425;DHT22;2225;53.568;13.266;2022-11-15T05:00:06;8.10;96.40
4425;DHT22;2225;53.568;13.266;2022-11-15T05:02:54;8.10;96.40
4425;DHT22;2225;53.568;13.266;2022-11-15T05:05:58;8.00;96.30
4425;DHT22;2225;53.568;13.266;2022-11-15T05:08:44;8.00;96.30
4425;DHT22;2225;53.568;13.266;2022-11-15T05:11:29;8.00;96.30
4425;DHT22;2225;53.568;13.266;2022-11-15T05:14:15;8.00;96.40
4425;DHT22;2225;53.568;13.266;2022-11-15T05:17:00;7.90;96.50
4425;DHT22;2225;53.568;13.266;2022-11-15T05:19:46;7.90;96.60
4425;DHT22;2225;53.568;13.266;2022-11-15T05:22:31;7.90;96.60
4425;DHT22;2225;53.568;13.266;2022-11-15T05:25:16;7.90;96.60
4425;DHT22;2225;53.568;13.266;2022-11-15T05:28:02;7.90;96.60
4425;DHT22;2225;53.568;13.266;2022-11-15T05:30:47;7.80;96.50
4425;DHT22;2225;53.568;13.266;2022-11-15T05:33:34;7.90;96.60
4425;DHT22;2225;53.568;13.266;2022-11-15T05:36:31;7.80;96.60
4425;DHT22;2225;53.568;13.266;2022-11-15T05:39:19;7.80;96.60
4425;DHT22;2225;53.568;13.266;2022-11-15T05:42:09;7.80;96.60
4425;DHT22;2225;53.568;13.266;2022-11-15T05:44:57;7.80;96.70
4425;DHT22;2225;53.568;13.266;2022-11-15T05:47:43;7.80;96.60
4425;DHT22;2225;53.568;13.266;2022-11-15T05:50:29;7.70;96.60
4425;DHT22;2225;53.568;13.266;2022-11-15T05:53:19;7.70;96.70
4425;DHT22;2225;53.568;13.266;2022-11-15T05:56:06;7.70;96.80
4425;DHT22;2225;53.568;13.266;2022-11-15T05:58:53;7.70;96.80
4425;DHT22;2225;53.568;13.266;2022-11-15T06:01:44;7.60;96.80
4425;DHT22;2225;53.568;13.266;2022-11-15T06:04:29;7.60;96.80
4425;DHT22;2225;53.568;13.266;2022-11-15T06:07:15;7.60;96.80
4425;DHT22;2225;53.568;13.266;2022-11-15T06:10:01;7.60;96.80
4425;DHT22;2225;53.568;13.266;2022-11-15T06:12:46;7.60;96.80
4425;DHT22;2225;53.568;13.266;2022-11-15T06:15:32;7.60;96.80
4425;DHT22;2225;53.568;13.266;2022-11-15T06:18:19;7.50;96.80
4425;DHT22;2225;53.568;13.266;2022-11-15T06:21:05;7.50;96.90
4425;DHT22;2225;53.568;13.266;2022-11-15T06:23:51;7.50;96.90
4425;DHT22;2225;53.568;13.266;2022-11-15T06:26:36;7.50;96.90
4425;DHT22;2225;53.568;13.266;2022-11-15T06:29:21;7.50;97.00
4425;DHT22;2225;53.568;13.266;2022-11-15T06:32:07;7.60;97.10
4425;DHT22;2225;53.568;13.266;2022-11-15T06:34:52;7.60;97.00
4425;DHT22;2225;53.568;13.266;2022-11-15T06:37:37;7.60;96.90
4425;DHT22;2225;53.568;13.266;2022-11-15T06:40:23;7.60;96.80
4425;DHT22;2225;53.568;13.266;2022-11-15T06:43:08;7.60;96.90
4425;DHT22;2225;53.568;13.266;2022-11-15T06:45:53;7.60;96.90
4425;DHT22;2225;53.568;13.266;2022-11-15T06:48:39;7.60;96.90
4425;DHT22;2225;53.568;13.266;2022-11-15T06:51:24;7.60;97.00
4425;DHT22;2225;53.568;13.266;2022-11-15T06:54:09;7.60;97.00
4425;DHT22;2225;53.568;13.266;2022-11-15T06:56:54;7.60;97.10
4425;DHT22;2225;53.568;13.266;2022-11-15T06:59:40;7.60;97.10
4425;DHT22;2225;53.568;13.266;2022-11-15T07:02:25;7.60;97.10
4425;DHT22;2225;53.568;13.266;2022-11-15T07:05:12;7.60;97.20
4425;DHT22;2225;53.568;13.266;2022-11-15T07:07:59;7.60;97.30
4425;DHT22;2225;53.568;13.266;2022-11-15T07:10:44;7.60;97.40
4425;DHT22;2225;53.568;13.266;2022-11-15T07:13:31;7.60;97.50
4425;DHT22;2225;53.568;13.266;2022-11-15T07:16:19;7.60;97.50
4425;DHT22;2225;53.568;13.266;2022-11-15T07:19:04;7.60;97.50
4425;DHT22;2225;53.568;13.266;2022-11-15T07:21:49;7.60;97.60
4425;DHT22;2225;53.568;13.266;2022-11-15T07:24:34;7.60;97.60
4425;DHT22;2225;53.568;13.266;2022-11-15T07:27:20;7.60;97.60
4425;DHT22;2225;53.568;13.266;2022-11-15T07:30:06;7.70;97.60
4425;DHT22;2225;53.568;13.266;2022-11-15T07:32:56;7.70;97.70
4425;DHT22;2225;53.568;13.266;2022-11-15T07:35:43;7.80;97.70
4425;DHT22;2225;53.568;13.266;2022-11-15T07:38:32;7.80;97.60
4425;DHT22;2225;53.568;13.266;2022-11-15T07:41:25;7.80;97.70
4425;DHT22;2225;53.568;13.266;2022-11-15T07:44:10;7.80;97.80
4425;DHT22;2225;53.568;13.266;2022-11-15T07:46:55;7.90;97.80
4425;DHT22;2225;53.568;13.266;2022-11-15T07:49:41;7.90;97.90
4425;DHT22;2225;53.568;13.266;2022-11-15T07:52:26;7.90;97.90
4425;DHT22;2225;53.568;13.266;2022-11-15T07:55:11;8.00;98.00
4425;DHT22;2225;53.568;13.266;2022-11-15T07:58:05;8.00;98.10
4425;DHT22;2225;53.568;13.266;2022-11-15T08:00:51;8.10;98.20
4425;DHT22;2225;53.568;13.266;2022-11-15T08:03:37;8.10;98.30
4425;DHT22;2225;53.568;13.266;2022-11-15T08:06:23;8.10;98.30
4425;DHT22;2225;53.568;13.266;2022-11-15T08:09:08;8.20;98.40
4425;DHT22;2225;53.568;13.266;2022-11-15T08:11:53;8.20;98.40
4425;DHT22;2225;53.568;13.266;2022-11-15T08:14:39;8.30;98.50
4425;DHT22;2225;53.568;13.266;2022-11-15T08:17:24;8.30;98.60
4425;DHT22;2225;53.568;13.266;2022-11-15T08:20:10;8.30;98.60
4425;DHT22;2225;53.568;13.266;2022-11-15T08:22:59;8.40;98.60
4425;DHT22;2225;53.568;13.266;2022-11-15T08:25:45;8.50;98.80
4425;DHT22;2225;53.568;13.266;2022-11-15T08:28:32;8.60;98.80
4425;DHT22;2225;53.568;13.266;2022-11-15T08:31:18;8.60;98.80
4425;DHT22;2225;53.568;13.266;2022-11-15T08:34:04;8.70;98.70
4425;DHT22;2225;53.568;13.266;2022-11-15T08:36:49;8.70;98.60
4425;DHT22;2225;53.568;13.266;2022-11-15T08:39:35;8.70;98.50
4425;DHT22;2225;53.568;13.266;2022-11-15T08:42:20;8.80;98.50
4425;DHT22;2225;53.568;13.266;2022-11-15T08:45:06;8.80;98.50
4425;DHT22;2225;53.568;13.266;2022-11-15T08:47:52;8.80;98.60
4425;DHT22;2225;53.568;13.266;2022-11-15T08:50:38;8.90;98.70
4425;DHT22;2225;53.568;13.266;2022-11-15T08:53:24;8.90;98.70
4425;DHT22;2225;53.568;13.266;2022-11-15T08:56:10;9.00;98.70
4425;DHT22;2225;53.568;13.266;2022-11-15T08:58:57;9.10;98.80
4425;DHT22;2225;53.568;13.266;2022-11-15T09:01:42;9.10;98.80
4425;DHT22;2225;53.568;13.266;2022-11-15T09:04:28;9.20;98.80
4425;DHT22;2225;53.568;13.266;2022-11-15T09:07:14;9.30;98.90
4425;DHT22;2225;53.568;13.266;2022-11-15T09:10:00;9.40;98.90
4425;DHT22;2225;53.568;13.266;2022-11-15T09:12:45;9.40;98.90
4425;DHT22;2225;53.568;13.266;2022-11-15T09:15:33;9.50;99.00
4425;DHT22;2225;53.568;13.266;2022-11-15T09:18:19;9.60;99.10
4425;DHT22;2225;53.568;13.266;2022-11-15T09:21:08;9.70;99.10
4425;DHT22;2225;53.568;13.266;2022-11-15T09:23:53;9.80;99.10
4425;DHT22;2225;53.568;13.266;2022-11-15T09:26:39;9.90;98.90
4425;DHT22;2225;53.568;13.266;2022-11-15T09:29:25;10.10;98.80
4425;DHT22;2225;53.568;13.266;2022-11-15T09:32:10;10.10;98.50
4425;DHT22;2225;53.568;13.266;2022-11-15T09:34:56;10.20;98.50
4425;DHT22;2225;53.568;13.266;2022-11-15T09:37:42;10.20;98.30
4425;DHT22;2225;53.568;13.266;2022-11-15T09:40:27;10.30;98.30
4425;DHT22;2225;53.568;13.266;2022-11-15T09:43:32;10.30;98.30
4425;DHT22;2225;53.568;13.266;2022-11-15T09:46:47;10.40;98.30
4425;DHT22;2225;53.568;13.266;2022-11-15T09:49:41;10.40;98.30
4425;DHT22;2225;53.568;13.266;2022-11-15T09:52:17;10.50;98.40
4425;DHT22;2225;53.568;13.266;2022-11-15T09:54:48;10.50;98.10
4425;DHT22;2225;53.568;13.266;2022-11-15T09:57:37;10.50;98.30
4425;DHT22;2225;53.568;13.266;2022-11-15T10:00:32;10.60;98.20
4425;DHT22;2225;53.568;13.266;2022-11-15T10:03:26;10.70;98.30
4425;DHT22;2225;53.568;13.266;2022-11-15T10:05:59;10.70;98.40
4425;DHT22;2225;53.568;13.266;2022-11-15T10:11:19;10.90;98.10
4425;DHT22;2225;53.568;13.266;2022-11-15T10:14:18;10.90;98.00
4425;DHT22;2225;53.568;13.266;2022-11-15T10:20:23;11.10;97.80
4425;DHT22;2225;53.568;13.266;2022-11-15T10:22:54;11.10;97.80
4425;DHT22;2225;53.568;13.266;2022-11-15T10:25:28;11.20;97.80
4425;DHT22;2225;53.568;13.266;2022-11-15T10:28:04;11.20;97.60
4425;DHT22;2225;53.568;13.266;2022-11-15T10:30:40;11.20;97.50
4425;DHT22;2225;53.568;13.266;2022-11-15T10:33:20;11.30;97.70
4425;DHT22;2225;53.568;13.266;2022-11-15T10:41:22;11.50;97.60
4425;DHT22;2225;53.568;13.266;2022-11-15T10:47:05;11.60;97.50
4425;DHT22;2225;53.568;13.266;2022-11-15T10:49:54;11.60;97.50
4425;DHT22;2225;53.568;13.266;2022-11-15T10:52:25;11.60;97.60
4425;DHT22;2225;53.568;13.266;2022-11-15T10:55:32;11.60;97.40
4425;DHT22;2225;53.568;13.266;2022-11-15T10:58:05;11.70;97.40
4425;DHT22;2225;53.568;13.266;2022-11-15T11:00:46;11.70;97.40
4425;DHT22;2225;53.568;13.266;2022-11-15T11:03:31;11.80;97.70
4425;DHT22;2225;53.568;13.266;2022-11-15T11:06:13;11.80;97.70
4425;DHT22;2225;53.568;13.266;2022-11-15T11:09:00;11.90;97.70
4425;DHT22;2225;53.568;13.266;2022-11-15T11:12:00;11.90;97.60
4425;DHT22;2225;53.568;13.266;2022-11-15T11:14:33;12.00;97.40
4425;DHT22;2225;53.568;13.266;2022-11-15T11:20:20;12.10;97.30
4425;DHT22;2225;53.568;13.266;2022-11-15T11:23:01;12.20;97.10
4425;DHT22;2225;53.568;13.266;2022-11-15T11:25:56;12.20;96.70
4425;DHT22;2225;53.568;13.266;2022-11-15T11:34:39;12.20;96.60
4425;DHT22;2225;53.568;13.266;2022-11-15T11:37:37;12.20;96.50
4425;DHT22;2225;53.568;13.266;2022-11-15T11:40:37;12.30;96.40
4425;DHT22;2225;53.568;13.266;2022-11-15T11:43:32;12.30;96.40
4425;DHT22;2225;53.568;13.266;2022-11-15T11:46:35;12.30;96.40
4425;DHT22;2225;53.568;13.266;2022-11-15T11:49:08;12.30;96.50
4425;DHT22;2225;53.568;13.266;2022-11-15T11:51:42;12.30;96.40
4425;DHT22;2225;53.568;13.266;2022-11-15T11:54:47;12.40;96.20
4425;DHT22;2225;53.568;13.266;2022-11-15T11:57:34;12.30;96.30
4425;DHT22;2225;53.568;13.266;2022-11-15T12:00:22;12.30;96.30
4425;DHT22;2225;53.568;13.266;2022-11-15T12:05:59;12.30;96.30
4425;DHT22;2225;53.568;13.266;2022-11-15T12:08:50;12.30;96.40
4425;DHT22;2225;53.568;13.266;2022-11-15T12:11:34;12.30;96.20
4425;DHT22;2225;53.568;13.266;2022-11-15T12:14:09;12.30;96.20
4425;DHT22;2225;53.568;13.266;2022-11-15T12:16:42;12.30;96.20
4425;DHT22;2225;53.568;13.266;2022-11-15T12:19:09;12.20;96.20
4425;DHT22;2225;53.568;13.266;2022-11-15T12:21:59;12.30;96.40
4425;DHT22;2225;53.568;13.266;2022-11-15T12:24:41;12.30;96.30
4425;DHT22;2225;53.568;13.266;2022-11-15T12:27:35;12.30;96.20
4425;DHT22;2225;53.568;13.266;2022-11-15T12:30:12;12.40;96.30
4425;DHT22;2225;53.568;13.266;2022-11-15T12:32:54;12.40;96.30
4425;DHT22;2225;53.568;13.266;2022-11-15T12:35:39;12.30;96.30
4425;DHT22;2225;53.568;13.266;2022-11-15T12:38:12;12.40;96.40
4425;DHT22;2225;53.568;13.266;2022-11-15T12:41:13;12.40;96.40
4425;DHT22;2225;53.568;13.266;2022-11-15T12:43:42;12.40;96.20
4425;DHT22;2225;53.568;13.266;2022-11-15T12:46:22;12.50;95.90
4425;DHT22;2225;53.568;13.266;2022-11-15T12:48:56;12.50;95.80
4425;DHT22;2225;53.568;13.266;2022-11-15T12:59:51;12.40;95.60
4425;DHT22;2225;53.568;13.266;2022-11-15T13:02:40;12.30;95.60
4425;DHT22;2225;53.568;13.266;2022-11-15T13:13:02;12.30;95.60
4425;DHT22;2225;53.568;13.266;2022-11-15T13:15:33;12.20;95.50
4425;DHT22;2225;53.568;13.266;2022-11-15T13:20:55;12.20;95.40
4425;DHT22;2225;53.568;13.266;2022-11-15T13:23:28;12.10;95.40
4425;DHT22;2225;53.568;13.266;2022-11-15T13:28:50;12.00;95.70
4425;DHT22;2225;53.568;13.266;2022-11-15T13:31:28;12.00;95.70
4425;DHT22;2225;53.568;13.266;2022-11-15T13:34:00;12.00;95.70
4425;DHT22;2225;53.568;13.266;2022-11-15T13:36:33;11.90;95.60
4425;DHT22;2225;53.568;13.266;2022-11-15T13:41:59;11.80;95.70
4425;DHT22;2225;53.568;13.266;2022-11-15T13:44:31;11.70;95.80
4425;DHT22;2225;53.568;13.266;2022-11-15T13:47:03;11.70;95.90
4425;DHT22;2225;53.568;13.266;2022-11-15T13:49:39;11.70;95.90
4425;DHT22;2225;53.568;13.266;2022-11-15T13:52:10;11.60;95.80
4425;DHT22;2225;53.568;13.266;2022-11-15T13:57:29;11.60;95.70
4425;DHT22;2225;53.568;13.266;2022-11-15T14:00:03;11.60;95.80
4425;DHT22;2225;53.568;13.266;2022-11-15T14:02:39;11.50;95.90
4425;DHT22;2225;53.568;13.266;2022-11-15T14:05:16;11.40;96.10
4425;DHT22;2225;53.568;13.266;2022-11-15T14:08:03;11.40;96.30
4425;DHT22;2225;53.568;13.266;2022-11-15T14:10:44;11.40;96.50
4425;DHT22;2225;53.568;13.266;2022-11-15T14:13:27;11.30;96.40
4425;DHT22;2225;53.568;13.266;2022-11-15T14:16:13;11.30;96.50
4425;DHT22;2225;53.568;13.266;2022-11-15T14:18:48;11.30;96.60
4425;DHT22;2225;53.568;13.266;2022-11-15T14:21:18;11.30;96.60
4425;DHT22;2225;53.568;13.266;2022-11-15T14:23:46;11.30;96.60
4425;DHT22;2225;53.568;13.266;2022-11-15T14:26:34;11.30;96.60
4425;DHT22;2225;53.568;13.266;2022-11-15T14:29:21;11.40;96.60
4425;DHT22;2225;53.568;13.266;2022-11-15T14:32:12;11.30;96.50
4425;DHT22;2225;53.568;13.266;2022-11-15T14:34:43;11.30;96.40
4425;DHT22;2225;53.568;13.266;2022-11-15T14:37:26;11.30;96.40
4425;DHT22;2225;53.568;13.266;2022-11-15T14:39:54;11.20;96.60
4425;DHT22;2225;53.568;13.266;2022-11-15T14:42:22;11.20;96.60
4425;DHT22;2225;53.568;13.266;2022-11-15T14:44:50;11.10;97.00
4425;DHT22;2225;53.568;13.266;2022-11-15T14:47:17;11.10;96.80
4425;DHT22;2225;53.568;13.266;2022-11-15T14:49:45;11.10;96.80
4425;DHT22;2225;53.568;13.266;2022-11-15T14:52:32;11.10;96.90
4425;DHT22;2225;53.568;13.266;2022-11-15T14:55:09;11.00;96.90
4425;DHT22;2225;53.568;13.266;2022-11-15T14:57:40;11.00;97.00
4425;DHT22;2225;53.568;13.266;2022-11-15T15:00:08;11.00;97.00
4425;DHT22;2225;53.568;13.266;2022-11-15T15:02:38;11.00;96.90
4425;DHT22;2225;53.568;13.266;2022-11-15T15:05:15;11.00;96.90
4425;DHT22;2225;53.568;13.266;2022-11-15T15:07:52;11.00;97.00
4425;DHT22;2225;53.568;13.266;2022-11-15T15:10:20;10.90;97.00
4425;DHT22;2225;53.568;13.266;2022-11-15T15:13:20;10.90;96.90
4425;DHT22;2225;53.568;13.266;2022-11-15T15:15:49;11.00;96.90
4425;DHT22;2225;53.568;13.266;2022-11-15T15:18:18;10.90;96.80
4425;DHT22;2225;53.568;13.266;2022-11-15T15:20:53;10.90;96.90
4425;DHT22;2225;53.568;13.266;2022-11-15T15:23:22;10.90;97.00
4425;DHT22;2225;53.568;13.266;2022-11-15T15:25:51;10.80;97.00
4425;DHT22;2225;53.568;13.266;2022-11-15T15:28:19;10.80;97.10
4425;DHT22;2225;53.568;13.266;2022-11-15T15:30:46;10.70;97.10
4425;DHT22;2225;53.568;13.266;2022-11-15T15:33:13;10.70;97.20
4425;DHT22;2225;53.568;13.266;2022-11-15T15:35:40;10.70;97.20
4425;DHT22;2225;53.568;13.266;2022-11-15T15:38:10;10.70;97.30
4425;DHT22;2225;53.568;13.266;2022-11-15T15:40:38;10.70;97.40
4425;DHT22;2225;53.568;13.266;2022-11-15T15:43:05;10.60;97.30
4425;DHT22;2225;53.568;13.266;2022-11-15T15:45:38;10.60;97.30
4425;DHT22;2225;53.568;13.266;2022-11-15T15:48:05;10.60;97.40
4425;DHT22;2225;53.568;13.266;2022-11-15T15:50:34;10.60;97.40
4425;DHT22;2225;53.568;13.266;2022-11-15T15:53:03;10.50;97.40
4425;DHT22;2225;53.568;13.266;2022-11-15T15:55:31;10.50;97.40
4425;DHT22;2225;53.568;13.266;2022-11-15T15:57:58;10.50;97.60
4425;DHT22;2225;53.568;13.266;2022-11-15T16:00:25;10.50;97.60
4425;DHT22;2225;53.568;13.266;2022-11-15T16:02:53;10.50;97.50
4425;DHT22;2225;53.568;13.266;2022-11-15T16:05:21;10.50;97.50
4425;DHT22;2225;53.568;13.266;2022-11-15T16:07:48;10.50;97.50
4425;DHT22;2225;53.568;13.266;2022-11-15T16:10:27;10.50;97.50
4425;DHT22;2225;53.568;13.266;2022-11-15T16:12:57;10.60;97.60
4425;DHT22;2225;53.568;13.266;2022-11-15T16:15:26;10.50;97.40
4425;DHT22;2225;53.568;13.266;2022-11-15T16:17:58;10.60;97.40
4425;DHT22;2225;53.568;13.266;2022-11-15T16:23:09;10.60;97.70
4425;DHT22;2225;53.568;13.266;2022-11-15T16:25:45;10.60;97.40
4425;DHT22;2225;53.568;13.266;2022-11-15T16:28:27;10.60;97.40
4425;DHT22;2225;53.568;13.266;2022-11-15T16:31:04;10.60;97.50
4425;DHT22;2225;53.568;13.266;2022-11-15T16:33:32;10.70;97.40
4425;DHT22;2225;53.568;13.266;2022-11-15T16:36:00;10.60;97.40
4425;DHT22;2225;53.568;13.266;2022-11-15T16:38:27;10.70;97.30
4425;DHT22;2225;53.568;13.266;2022-11-15T16:40:54;10.70;97.30
4425;DHT22;2225;53.568;13.266;2022-11-15T16:43:21;10.70;97.30
4425;DHT22;2225;53.568;13.266;2022-11-15T16:45:49;10.70;97.40
4425;DHT22;2225;53.568;13.266;2022-11-15T16:48:24;10.70;97.40
4425;DHT22;2225;53.568;13.266;2022-11-15T16:50:57;10.70;97.40
4425;DHT22;2225;53.568;13.266;2022-11-15T16:53:25;10.70;97.30
4425;DHT22;2225;53.568;13.266;2022-11-15T16:55:54;10.70;97.40
4425;DHT22;2225;53.568;13.266;2022-11-15T16:58:21;10.70;97.30
4425;DHT22;2225;53.568;13.266;2022-11-15T17:00:52;10.70;97.30
4425;DHT22;2225;53.568;13.266;2022-11-15T17:03:21;10.70;97.30
4425;DHT22;2225;53.568;13.266;2022-11-15T17:05:51;10.70;97.30
4425;DHT22;2225;53.568;13.266;2022-11-15T17:08:18;10.70;97.30
4425;DHT22;2225;53.568;13.266;2022-11-15T17:10:47;10.60;97.20
4425;DHT22;2225;53.568;13.266;2022-11-15T17:13:14;10.60;97.40
4425;DHT22;2225;53.568;13.266;2022-11-15T17:15:41;10.60;97.40
4425;DHT22;2225;53.568;13.266;2022-11-15T17:18:11;10.50;97.50
4425;DHT22;2225;53.568;13.266;2022-11-15T17:20:39;10.50;97.60
4425;DHT22;2225;53.568;13.266;2022-11-15T17:23:11;10.50;97.70
4425;DHT22;2225;53.568;13.266;2022-11-15T17:25:40;10.50;97.70
4425;DHT22;2225;53.568;13.266;2022-11-15T17:28:07;10.50;97.80
4425;DHT22;2225;53.568;13.266;2022-11-15T17:30:34;10.50;97.70
4425;DHT22;2225;53.568;13.266;2022-11-15T17:33:01;10.50;97.70
4425;DHT22;2225;53.568;13.266;2022-11-15T17:35:28;10.50;97.80
4425;DHT22;2225;53.568;13.266;2022-11-15T17:37:55;10.50;97.90
4425;DHT22;2225;53.568;13.266;2022-11-15T17:40:21;10.50;97.90
4425;DHT22;2225;53.568;13.266;2022-11-15T17:42:48;10.50;97.90
4425;DHT22;2225;53.568;13.266;2022-11-15T17:45:15;10.50;97.90
4425;DHT22;2225;53.568;13.266;2022-11-15T17:47:42;10.50;97.80
4425;DHT22;2225;53.568;13.266;2022-11-15T17:50:09;10.50;97.90
4425;DHT22;2225;53.568;13.266;2022-11-15T17:52:37;10.60;97.90
4425;DHT22;2225;53.568;13.266;2022-11-15T17:55:04;10.50;97.90
4425;DHT22;2225;53.568;13.266;2022-11-15T17:57:31;10.60;97.90
4425;DHT22;2225;53.568;13.266;2022-11-15T17:59:58;10.60;97.90
4425;DHT22;2225;53.568;13.266;2022-11-15T18:02:25;10.60;97.90
4425;DHT22;2225;53.568;13.266;2022-11-15T18:04:52;10.60;97.90
4425;DHT22;2225;53.568;13.266;2022-11-15T18:07:18;10.60;97.90
4425;DHT22;2225;53.568;13.266;2022-11-15T18:09:45;10.60;97.90
4425;DHT22;2225;53.568;13.266;2022-11-15T18:12:12;10.60;97.90
4425;DHT22;2225;53.568;13.266;2022-11-15T18:14:39;10.60;97.90
4425;DHT22;2225;53.568;13.266;2022-11-15T18:17:06;10.60;97.90
4425;DHT22;2225;53.568;13.266;2022-11-15T18:19:33;10.60;97.90
4425;DHT22;2225;53.568;13.266;2022-11-15T18:22:00;10.70;98.00
4425;DHT22;2225;53.568;13.266;2022-11-15T18:24:32;10.70;98.00
4425;DHT22;2225;53.568;13.266;2022-11-15T18:27:02;10.70;98.00
4425;DHT22;2225;53.568;13.266;2022-11-15T18:29:30;10.70;98.00
4425;DHT22;2225;53.568;13.266;2022-11-15T18:31:58;10.70;97.90
4425;DHT22;2225;53.568;13.266;2022-11-15T18:34:26;10.80;97.70
4425;DHT22;2225;53.568;13.266;2022-11-15T18:36:57;10.70;97.50
4425;DHT22;2225;53.568;13.266;2022-11-15T18:39:24;10.70;97.50